Time;durP1;ratioP1;P1;durP2;ratioP2;P2;SDS_P1;SDS_P2;PMS_P1;PMS_P2;Temp;Humidity;BMP_temperature;BMP_pressure;BME280_temperature;BME280_humidity;BME280_pressure;Samples;Min_cycle;Max_cycle;Signal;HPM_P1;HPM_P2
2022/11/20 00:02:03;;;;;;;;;;;230.60;2252.80;;;;;;5050143;28;20332;-85
2022/11/20 00:04:28;;;;;;;;;;;230.70;2252.80;;;;;;5054644;28;20007;-84
2022/11/20 00:06:54;;;;;;;;;;;230.80;2252.80;;;;;;5035557;28;19905;-83
2022/11/20 00:09:20;;;;;;;;;;;230.70;2252.80;;;;;;5036712;28;19905;-84
2022/11/20 00:11:45;;;;;;;;;;;230.80;2252.80;;;;;;5036613;28;19904;-84
2022/11/20 00:14:11;;;;;;;;;;;230.80;2252.80;;;;;;5039752;28;20410;-85
2022/11/20 00:16:37;;;;;;;;;;;230.80;2252.80;;;;;;5056901;28;20002;-84
2022/11/20 00:19:02;;;;;;;;;;;230.80;2252.80;;;;;;5058825;28;19912;-84
2022/11/20 00:21:28;;;;;;;;;;;230.80;2252.80;;;;;;5062506;28;19926;-85
2022/11/20 00:23:54;;;;;;;;;;;230.80;2252.80;;;;;;5043209;28;19958;-84
2022/11/20 00:26:21;;;;;;;;;;;230.80;2252.80;;;;;;5042590;28;19904;-85
2022/11/20 00:28:51;;;;;;;;;;;230.70;2252.80;;;;;;5052381;28;19905;-86
2022/11/20 00:31:16;;;;;;;;;;;230.70;2252.80;;;;;;5035056;28;19919;-84
2022/11/20 00:33:42;;;;;;;;;;;230.70;2252.80;;;;;;5036226;28;20356;-84
2022/11/20 00:36:09;;;;;;;;;;;230.70;2252.80;;;;;;5052077;28;20361;-84
2022/11/20 00:38:35;;;;;;;;;;;230.80;2252.80;;;;;;5056784;28;19966;-84
2022/11/20 00:41:01;;;;;;;;;;;230.80;2252.80;;;;;;5042446;28;19908;-84
2022/11/20 00:43:27;;;;;;;;;;;230.80;2252.80;;;;;;5037411;28;19957;-85
2022/11/20 00:45:59;;;;;;;;;;;230.80;2252.80;;;;;;5039486;28;20007;-84
2022/11/20 00:48:25;;;;;;;;;;;230.90;2252.80;;;;;;5036995;28;19911;-85
2022/11/20 00:50:50;;;;;;;;;;;230.90;2252.80;;;;;;5055955;28;19908;-84
2022/11/20 00:53:16;;;;;;;;;;;230.90;2252.80;;;;;;5055175;28;19904;-85
2022/11/20 00:55:42;;;;;;;;;;;230.90;2252.80;;;;;;5022818;28;19904;-84
2022/11/20 00:58:08;;;;;;;;;;;230.90;2252.80;;;;;;5036502;28;19913;-84
2022/11/20 01:00:34;;;;;;;;;;;230.90;2252.80;;;;;;5049994;28;19917;-85
2022/11/20 01:02:59;;;;;;;;;;;230.80;2252.80;;;;;;5036356;28;20426;-86
2022/11/20 01:05:25;;;;;;;;;;;230.80;2252.80;;;;;;5035252;28;19928;-85
2022/11/20 01:07:50;;;;;;;;;;;230.80;2252.80;;;;;;5043558;28;19904;-86
2022/11/20 01:10:17;;;;;;;;;;;230.90;2252.80;;;;;;5073760;28;20417;-86
2022/11/20 01:12:42;;;;;;;;;;;230.80;2252.80;;;;;;5036702;28;19904;-85
2022/11/20 01:15:08;;;;;;;;;;;230.80;2252.80;;;;;;5035327;28;20373;-85
2022/11/20 01:17:33;;;;;;;;;;;230.80;2252.80;;;;;;5038578;28;19913;-84
2022/11/20 01:19:59;;;;;;;;;;;230.80;2252.80;;;;;;5053176;28;19911;-85
2022/11/20 01:22:25;;;;;;;;;;;230.70;2252.80;;;;;;5067736;28;19965;-84
2022/11/20 01:24:50;;;;;;;;;;;230.70;2252.80;;;;;;5069654;28;19927;-84
2022/11/20 01:27:16;;;;;;;;;;;230.70;2252.80;;;;;;5047700;28;19904;-85
2022/11/20 01:29:41;;;;;;;;;;;230.70;2252.80;;;;;;5044378;28;20455;-85
2022/11/20 01:32:07;;;;;;;;;;;230.70;2252.80;;;;;;5059462;28;20277;-84
2022/11/20 01:34:32;;;;;;;;;;;230.60;2252.80;;;;;;5058358;28;19905;-85
2022/11/20 01:36:58;;;;;;;;;;;230.60;2252.80;;;;;;5049642;28;19920;-85
2022/11/20 01:39:25;;;;;;;;;;;230.60;2252.80;;;;;;5039870;28;19991;-84
2022/11/20 01:44:50;;;;;;;;;;;230.60;2252.80;;;;;;5058015;28;20403;-85
2022/11/20 01:47:36;;;;;;;;;;;230.60;2252.80;;;;;;5044446;28;19908;-84
2022/11/20 01:50:04;;;;;;;;;;;230.60;2252.80;;;;;;5075500;28;19995;-84
2022/11/20 01:52:33;;;;;;;;;;;230.60;2252.80;;;;;;5058639;28;20008;-84
2022/11/20 01:55:01;;;;;;;;;;;230.60;2252.80;;;;;;5076325;28;19950;-84
2022/11/20 01:57:29;;;;;;;;;;;230.70;2252.80;;;;;;5043810;28;19920;-84
2022/11/20 02:00:00;;;;;;;;;;;230.60;2252.80;;;;;;5075950;28;19912;-84
2022/11/20 02:02:26;;;;;;;;;;;230.60;2252.80;;;;;;5036812;28;19912;-85
2022/11/20 02:04:54;;;;;;;;;;;230.70;2252.80;;;;;;5038328;28;19909;-84
2022/11/20 02:07:19;;;;;;;;;;;230.70;2252.80;;;;;;5038360;28;19913;-84
2022/11/20 02:09:45;;;;;;;;;;;230.60;2252.80;;;;;;5047251;28;19914;-85
2022/11/20 02:13:42;;;;;;;;;;;230.70;2252.80;;;;;;5059033;28;19908;-84
2022/11/20 02:14:56;;;;;;;;;;;230.70;2252.80;;;;;;5075507;28;19962;-83
2022/11/20 02:17:23;;;;;;;;;;;230.60;2252.80;;;;;;5044535;28;19923;-84
2022/11/20 02:19:49;;;;;;;;;;;230.60;2252.80;;;;;;5057727;28;19904;-84
2022/11/20 02:22:19;;;;;;;;;;;230.60;2252.80;;;;;;5059021;28;20050;-85
2022/11/20 02:24:45;;;;;;;;;;;230.60;2252.80;;;;;;5044834;28;19948;-83
2022/11/20 02:27:12;;;;;;;;;;;230.60;2252.80;;;;;;5058263;28;19974;-84
2022/11/20 02:29:44;;;;;;;;;;;230.60;2252.80;;;;;;5033575;28;19917;-84
2022/11/20 02:32:19;;;;;;;;;;;230.60;2252.80;;;;;;5040609;28;19904;-83
2022/11/20 02:34:44;;;;;;;;;;;230.60;2252.80;;;;;;5043871;28;19927;-84
2022/11/20 02:37:10;;;;;;;;;;;230.70;2252.80;;;;;;5046955;28;19917;-84
2022/11/20 02:39:35;;;;;;;;;;;230.70;2252.80;;;;;;5042486;28;19912;-84
2022/11/20 02:42:02;;;;;;;;;;;230.60;2252.80;;;;;;5057453;28;19904;-85
2022/11/20 02:44:27;;;;;;;;;;;230.60;2252.80;;;;;;5057340;28;19904;-84
2022/11/20 02:46:53;;;;;;;;;;;230.60;2252.80;;;;;;5043671;28;20411;-84
2022/11/20 02:49:18;;;;;;;;;;;230.60;2252.80;;;;;;5057288;28;19909;-83
2022/11/20 02:51:44;;;;;;;;;;;230.50;2252.80;;;;;;5057215;28;20057;-84
2022/11/20 02:54:09;;;;;;;;;;;230.50;2252.80;;;;;;5057008;28;20274;-84
2022/11/20 02:56:37;;;;;;;;;;;230.50;2252.80;;;;;;5057284;28;20362;-85
2022/11/20 02:59:03;;;;;;;;;;;230.50;2252.80;;;;;;5056474;28;19912;-84
2022/11/20 03:01:28;;;;;;;;;;;230.60;2252.80;;;;;;5053130;28;20003;-83
2022/11/20 03:03:54;;;;;;;;;;;230.60;2252.80;;;;;;5053190;28;19908;-84
2022/11/20 03:06:20;;;;;;;;;;;230.60;2252.80;;;;;;5053535;28;19905;-83
2022/11/20 03:08:45;;;;;;;;;;;230.60;2252.80;;;;;;5054806;28;19912;-84
2022/11/20 03:11:11;;;;;;;;;;;230.60;2252.80;;;;;;5053514;28;19963;-84
2022/11/20 03:13:37;;;;;;;;;;;230.60;2252.80;;;;;;5053187;28;19904;-83
2022/11/20 03:16:10;;;;;;;;;;;230.60;2252.80;;;;;;5052903;28;19996;-85
2022/11/20 03:18:35;;;;;;;;;;;230.60;2252.80;;;;;;5053134;28;19912;-83
2022/11/20 03:21:01;;;;;;;;;;;230.60;2252.80;;;;;;5052945;28;19995;-84
2022/11/20 03:23:28;;;;;;;;;;;230.70;2252.80;;;;;;5052441;28;19912;-85
2022/11/20 03:25:55;;;;;;;;;;;230.70;2252.80;;;;;;5052781;28;19960;-85
2022/11/20 03:28:21;;;;;;;;;;;230.70;2252.80;;;;;;5052788;28;19912;-84
2022/11/20 03:30:46;;;;;;;;;;;230.70;2252.80;;;;;;5054031;28;19905;-84
2022/11/20 03:33:12;;;;;;;;;;;230.80;2252.80;;;;;;5052507;28;19911;-84
2022/11/20 03:35:37;;;;;;;;;;;230.80;2252.80;;;;;;5053695;28;20000;-84
2022/11/20 03:38:03;;;;;;;;;;;230.80;2252.80;;;;;;5053094;28;19931;-85
2022/11/20 03:40:28;;;;;;;;;;;230.80;2252.80;;;;;;5051829;28;19932;-84
2022/11/20 03:42:54;;;;;;;;;;;230.70;2201.60;;;;;;5052775;28;19917;-83
2022/11/20 03:45:19;;;;;;;;;;;230.70;2252.80;;;;;;5049840;28;19904;-83
2022/11/20 03:47:45;;;;;;;;;;;230.80;2252.80;;;;;;5049773;28;19905;-84
2022/11/20 03:50:13;;;;;;;;;;;230.80;2252.80;;;;;;5052588;28;19932;-84
2022/11/20 03:52:39;;;;;;;;;;;230.80;2048.00;;;;;;5052687;28;19904;-84
2022/11/20 03:55:05;;;;;;;;;;;230.80;2176.00;;;;;;5052941;28;19991;-83
2022/11/20 03:57:31;;;;;;;;;;;230.80;1971.20;;;;;;5053758;28;19978;-83
2022/11/20 03:59:56;;;;;;;;;;;230.80;2022.40;;;;;;5052330;28;19916;-84
2022/11/20 04:02:22;;;;;;;;;;;230.80;1920.00;;;;;;5047288;28;19905;-85
2022/11/20 04:04:47;;;;;;;;;;;230.80;1894.40;;;;;;5038422;28;19972;-84
2022/11/20 04:07:13;;;;;;;;;;;230.70;2073.60;;;;;;5052522;28;20370;-84
2022/11/20 04:09:39;;;;;;;;;;;230.80;2073.60;;;;;;5053286;28;19911;-84
2022/11/20 04:12:04;;;;;;;;;;;230.70;2150.40;;;;;;5052109;28;19904;-84
2022/11/20 04:14:30;;;;;;;;;;;230.80;2252.80;;;;;;5052229;28;19911;-84
2022/11/20 04:16:56;;;;;;;;;;;230.70;2252.80;;;;;;5045548;28;20302;-84
2022/11/20 04:19:21;;;;;;;;;;;230.70;2252.80;;;;;;5052294;28;19916;-84
2022/11/20 04:21:47;;;;;;;;;;;230.70;2252.80;;;;;;5052232;28;19905;-83
2022/11/20 04:24:12;;;;;;;;;;;230.70;2252.80;;;;;;5052396;28;19915;-84
2022/11/20 04:26:39;;;;;;;;;;;230.60;2252.80;;;;;;5044873;28;20355;-84
2022/11/20 04:29:05;;;;;;;;;;;230.70;2252.80;;;;;;5052140;28;19912;-84
2022/11/20 04:31:32;;;;;;;;;;;230.60;2252.80;;;;;;5051869;28;20359;-84
2022/11/20 04:34:03;;;;;;;;;;;230.60;2252.80;;;;;;5052216;28;19905;-84
2022/11/20 04:36:29;;;;;;;;;;;230.60;2252.80;;;;;;5052120;28;19913;-84
2022/11/20 04:38:56;;;;;;;;;;;230.70;2252.80;;;;;;5052310;28;19999;-84
2022/11/20 04:41:22;;;;;;;;;;;230.60;2252.80;;;;;;5051251;28;19908;-84
2022/11/20 04:43:53;;;;;;;;;;;230.60;2252.80;;;;;;5070596;28;19900;-82
2022/11/20 04:46:20;;;;;;;;;;;230.60;2252.80;;;;;;5061164;28;19907;-82
2022/11/20 04:48:45;;;;;;;;;;;230.70;2252.80;;;;;;5057463;28;19955;-85
2022/11/20 04:51:12;;;;;;;;;;;230.70;2252.80;;;;;;5052390;28;19916;-84
2022/11/20 04:53:38;;;;;;;;;;;230.70;2252.80;;;;;;5056181;28;20364;-84
2022/11/20 04:56:05;;;;;;;;;;;230.90;2252.80;;;;;;5056149;28;19943;-84
2022/11/20 04:58:30;;;;;;;;;;;230.60;2252.80;;;;;;5064186;28;19916;-83
2022/11/20 05:01:08;;;;;;;;;;;230.70;2252.80;;;;;;5049830;28;19917;-84
2022/11/20 05:03:34;;;;;;;;;;;230.70;2252.80;;;;;;5034124;28;19905;-83
2022/11/20 05:06:01;;;;;;;;;;;230.70;2252.80;;;;;;5056004;28;20263;-84
2022/11/20 05:08:26;;;;;;;;;;;230.70;2252.80;;;;;;5055936;28;20234;-84
2022/11/20 05:10:52;;;;;;;;;;;230.60;2252.80;;;;;;5055073;28;19905;-85
2022/11/20 05:13:17;;;;;;;;;;;230.60;2252.80;;;;;;5055906;28;19904;-85
2022/11/20 05:15:43;;;;;;;;;;;230.60;2252.80;;;;;;5055075;28;19912;-84
2022/11/20 05:18:08;;;;;;;;;;;230.60;2252.80;;;;;;5055228;28;19912;-84
2022/11/20 05:20:36;;;;;;;;;;;230.60;2252.80;;;;;;5055240;28;20354;-84
2022/11/20 05:23:01;;;;;;;;;;;230.50;2252.80;;;;;;5055175;28;19912;-84
2022/11/20 05:25:27;;;;;;;;;;;230.60;2252.80;;;;;;5054784;28;19905;-84
2022/11/20 05:27:53;;;;;;;;;;;230.50;2252.80;;;;;;5055638;28;20324;-84
2022/11/20 05:30:18;;;;;;;;;;;230.60;2252.80;;;;;;5054883;28;19917;-84
2022/11/20 05:32:44;;;;;;;;;;;230.50;2252.80;;;;;;5056361;28;19951;-84
2022/11/20 05:35:09;;;;;;;;;;;230.40;2201.60;;;;;;5056015;28;19912;-83
2022/11/20 05:37:35;;;;;;;;;;;230.40;2048.00;;;;;;5054713;28;20294;-84
2022/11/20 05:40:00;;;;;;;;;;;205.70;2252.80;;;;;;5056061;28;19908;-84
2022/11/20 05:42:32;;;;;;;;;;;205.70;2252.80;;;;;;5054756;28;19972;-84
2022/11/20 05:44:59;;;;;;;;;;;205.70;2252.80;;;;;;5054577;28;19905;-84
2022/11/20 05:47:24;;;;;;;;;;;205.70;2252.80;;;;;;5049041;28;19976;-85
2022/11/20 05:49:50;;;;;;;;;;;205.60;2252.80;;;;;;5056138;28;19940;-82
2022/11/20 05:52:16;;;;;;;;;;;205.50;2252.80;;;;;;5055659;28;19904;-85
2022/11/20 05:54:41;;;;;;;;;;;205.50;2252.80;;;;;;5055992;28;19909;-83
2022/11/20 05:57:07;;;;;;;;;;;205.50;2252.80;;;;;;5054149;28;19959;-84
2022/11/20 05:59:32;;;;;;;;;;;205.50;2252.80;;;;;;5055258;28;20422;-83
2022/11/20 06:01:58;;;;;;;;;;;205.50;2252.80;;;;;;5055469;28;19916;-84
2022/11/20 06:04:23;;;;;;;;;;;205.40;2252.80;;;;;;5054420;28;19930;-84
2022/11/20 06:06:49;;;;;;;;;;;205.40;2252.80;;;;;;5055748;28;19905;-85
2022/11/20 06:09:14;;;;;;;;;;;205.30;2252.80;;;;;;5055368;28;19911;-84
2022/11/20 06:11:40;;;;;;;;;;;205.30;2252.80;;;;;;5051350;28;19956;-85
2022/11/20 06:14:06;;;;;;;;;;;205.30;2252.80;;;;;;5023384;28;20322;-84
2022/11/20 06:16:31;;;;;;;;;;;205.30;2252.80;;;;;;5024525;28;19917;-85
2022/11/20 06:18:57;;;;;;;;;;;205.40;1920.00;;;;;;5030616;28;19926;-84
2022/11/20 06:21:22;;;;;;;;;;;205.40;2252.80;;;;;;5039700;28;19909;-80
2022/11/20 06:23:49;;;;;;;;;;;205.40;2252.80;;;;;;5048849;28;19905;-81
2022/11/20 06:26:19;;;;;;;;;;;205.30;2252.80;;;;;;5053438;28;20270;-81
2022/11/20 06:28:45;;;;;;;;;;;205.30;2252.80;;;;;;5054268;28;19913;-82
2022/11/20 06:31:11;;;;;;;;;;;205.30;1971.20;;;;;;5054149;28;19912;-82
2022/11/20 06:33:37;;;;;;;;;;;205.40;2252.80;;;;;;5054658;28;19912;-82
2022/11/20 06:36:03;;;;;;;;;;;205.30;2124.80;;;;;;5053478;28;20343;-82
2022/11/20 06:38:28;;;;;;;;;;;205.40;2252.80;;;;;;5053811;28;19952;-85
2022/11/20 06:40:54;;;;;;;;;;;205.40;1996.80;;;;;;5053895;28;19908;-86
2022/11/20 06:43:20;;;;;;;;;;;205.30;2252.80;;;;;;5049973;28;19989;-84
2022/11/20 06:45:45;;;;;;;;;;;205.40;1996.80;;;;;;5053079;28;19904;-84
2022/11/20 06:48:11;;;;;;;;;;;205.40;2252.80;;;;;;5053347;28;20007;-82
2022/11/20 06:50:37;;;;;;;;;;;205.40;2252.80;;;;;;5052778;28;19958;-85
2022/11/20 06:53:03;;;;;;;;;;;205.30;2252.80;;;;;;5053744;28;19912;-85
2022/11/20 06:55:29;;;;;;;;;;;205.40;2252.80;;;;;;5053476;28;19904;-82
2022/11/20 06:57:54;;;;;;;;;;;205.30;2252.80;;;;;;5052602;28;19994;-82
2022/11/20 07:00:20;;;;;;;;;;;205.40;1868.80;;;;;;5052698;28;19920;-83
2022/11/20 07:02:45;;;;;;;;;;;205.30;2252.80;;;;;;5051930;28;19916;-83
2022/11/20 07:05:11;;;;;;;;;;;205.40;2252.80;;;;;;5054261;28;19909;-79
2022/11/20 07:07:37;;;;;;;;;;;205.50;2252.80;;;;;;5052467;28;21499;-80
2022/11/20 07:10:02;;;;;;;;;;;205.40;2252.80;;;;;;5052664;28;19904;-79
2022/11/20 07:12:28;;;;;;;;;;;205.40;2252.80;;;;;;5051780;28;20385;-79
2022/11/20 07:14:53;;;;;;;;;;;205.00;2252.80;;;;;;5052866;28;20388;-78
2022/11/20 07:17:19;;;;;;;;;;;205.40;2252.80;;;;;;5049042;28;19929;-81
2022/11/20 07:19:45;;;;;;;;;;;205.40;2252.80;;;;;;5025165;28;19913;-77
2022/11/20 07:22:10;;;;;;;;;;;205.40;2252.80;;;;;;5020931;28;19945;-80
2022/11/20 07:24:36;;;;;;;;;;;205.50;2252.80;;;;;;5033503;28;19959;-80
2022/11/20 07:27:01;;;;;;;;;;;205.50;2252.80;;;;;;5032335;28;20355;-78
2022/11/20 07:29:27;;;;;;;;;;;205.40;2252.80;;;;;;5033343;28;20358;-79
2022/11/20 07:31:52;;;;;;;;;;;205.50;2252.80;;;;;;5033790;28;19905;-78
2022/11/20 07:34:18;;;;;;;;;;;205.50;2252.80;;;;;;5016899;28;19913;-80
2022/11/20 07:36:43;;;;;;;;;;;205.50;2252.80;;;;;;5033452;28;19920;-81
2022/11/20 07:39:09;;;;;;;;;;;205.60;2252.80;;;;;;5048020;28;19905;-78
2022/11/20 07:41:34;;;;;;;;;;;205.70;2252.80;;;;;;5053259;28;19967;-81
2022/11/20 07:44:00;;;;;;;;;;;205.60;2252.80;;;;;;5053107;28;19904;-78
2022/11/20 07:46:26;;;;;;;;;;;205.70;2252.80;;;;;;5040119;28;20288;-79
2022/11/20 07:48:51;;;;;;;;;;;205.70;2252.80;;;;;;5051065;28;20357;-85
2022/11/20 07:51:17;;;;;;;;;;;205.60;2252.80;;;;;;5052239;28;19935;-84
2022/11/20 07:53:42;;;;;;;;;;;205.60;2252.80;;;;;;5045959;28;19905;-85
2022/11/20 07:56:08;;;;;;;;;;;205.60;2252.80;;;;;;5033162;28;19912;-84
2022/11/20 07:58:34;;;;;;;;;;;205.60;2252.80;;;;;;5016052;28;20430;-84
2022/11/20 08:01:04;;;;;;;;;;;205.60;2252.80;;;;;;5018470;28;19966;-89
2022/11/20 08:03:29;;;;;;;;;;;205.60;2252.80;;;;;;5053688;28;19912;-86
2022/11/20 08:05:58;;;;;;;;;;;205.60;2252.80;;;;;;5076691;28;19913;-83
2022/11/20 08:08:23;;;;;;;;;;;205.60;2252.80;;;;;;5077383;28;19894;-84
2022/11/20 08:10:49;;;;;;;;;;;205.60;2252.80;;;;;;5019454;28;19959;-85
2022/11/20 08:16:12;;;;;;;;;;;205.70;2252.80;;;;;;4961867;28;19969;-85
2022/11/20 08:18:37;;;;;;;;;;;205.70;2252.80;;;;;;4972924;28;20360;-83
2022/11/20 08:21:03;;;;;;;;;;;205.60;2252.80;;;;;;4972680;28;19929;-84
2022/11/20 08:23:30;;;;;;;;;;;205.60;2252.80;;;;;;4972922;28;19941;-83
2022/11/20 08:25:55;;;;;;;;;;;205.60;2252.80;;;;;;4973077;28;19913;-84
2022/11/20 08:28:21;;;;;;;;;;;205.60;2252.80;;;;;;4975787;28;19918;-84
2022/11/20 08:30:46;;;;;;;;;;;205.60;2252.80;;;;;;4976736;28;19917;-84
2022/11/20 08:33:12;;;;;;;;;;;205.70;2252.80;;;;;;4974884;28;19906;-82
2022/11/20 08:35:38;;;;;;;;;;;230.40;2252.80;;;;;;4941396;29;19972;-80
2022/11/20 08:38:04;;;;;;;;;;;205.70;2252.80;;;;;;4954675;28;19918;-83
2022/11/20 08:40:30;;;;;;;;;;;205.70;2252.80;;;;;;4941587;29;19922;-79
2022/11/20 08:42:55;;;;;;;;;;;205.60;2252.80;;;;;;4940635;29;19907;-80
2022/11/20 08:45:21;;;;;;;;;;;205.50;2252.80;;;;;;4955822;29;20459;-81
2022/11/20 08:47:46;;;;;;;;;;;205.50;2252.80;;;;;;4951684;29;19980;-78
2022/11/20 08:50:13;;;;;;;;;;;205.60;2252.80;;;;;;4956318;29;19929;-79
2022/11/20 08:52:39;;;;;;;;;;;205.60;2252.80;;;;;;5022468;28;19931;-79
2022/11/20 08:55:05;;;;;;;;;;;205.70;2252.80;;;;;;5041589;28;20429;-83
2022/11/20 08:57:31;;;;;;;;;;;205.70;2252.80;;;;;;5048700;28;19919;-79
2022/11/20 08:59:57;;;;;;;;;;;205.60;2252.80;;;;;;5015571;28;19964;-79
2022/11/20 09:02:23;;;;;;;;;;;205.70;2252.80;;;;;;5030167;28;19948;-79
2022/11/20 09:04:48;;;;;;;;;;;205.70;2252.80;;;;;;5043198;28;19912;-82
2022/11/20 09:07:14;;;;;;;;;;;205.70;2252.80;;;;;;5054871;28;19912;-77
2022/11/20 09:09:39;;;;;;;;;;;205.70;2252.80;;;;;;5054082;28;19908;-78
2022/11/20 09:12:05;;;;;;;;;;;205.60;2252.80;;;;;;5054268;28;19920;-79
2022/11/20 09:14:30;;;;;;;;;;;205.60;2252.80;;;;;;5054057;28;20247;-83
2022/11/20 09:16:56;;;;;;;;;;;205.60;2252.80;;;;;;5055757;28;19913;-77
2022/11/20 09:19:23;;;;;;;;;;;205.60;2252.80;;;;;;5054229;28;19935;-77
2022/11/20 09:21:48;;;;;;;;;;;205.70;2252.80;;;;;;5049747;28;19956;-77
2022/11/20 09:24:14;;;;;;;;;;;205.50;2252.80;;;;;;5048235;28;19948;-81
2022/11/20 09:26:39;;;;;;;;;;;205.70;2252.80;;;;;;5035411;28;19959;-83
2022/11/20 09:29:05;;;;;;;;;;;205.50;2252.80;;;;;;5039634;28;19909;-78
2022/11/20 09:31:31;;;;;;;;;;;205.60;2252.80;;;;;;5024850;28;19916;-79
2022/11/20 09:33:56;;;;;;;;;;;205.70;2252.80;;;;;;5052190;28;20270;-79
2022/11/20 09:36:22;;;;;;;;;;;205.60;2252.80;;;;;;5045352;28;20355;-80
2022/11/20 09:38:47;;;;;;;;;;;205.60;2252.80;;;;;;5033163;28;20259;-79
2022/11/20 09:41:36;;;;;;;;;;;205.70;2252.80;;;;;;5034739;28;19995;-86
2022/11/20 09:44:11;;;;;;;;;;;205.60;2252.80;;;;;;5028522;28;19909;-78
2022/11/20 09:46:55;;;;;;;;;;;205.70;2252.80;;;;;;5049383;28;19904;-79
2022/11/20 09:49:32;;;;;;;;;;;205.70;2252.80;;;;;;5043163;28;19905;-79
2022/11/20 09:52:20;;;;;;;;;;;205.70;2252.80;;;;;;5038867;28;19905;-80
2022/11/20 09:54:46;;;;;;;;;;;230.40;2252.80;;;;;;5034994;28;19905;-79
2022/11/20 09:57:14;;;;;;;;;;;205.70;2252.80;;;;;;5035657;28;19923;-78
2022/11/20 10:00:00;;;;;;;;;;;205.60;2252.80;;;;;;5033073;28;19920;-79
2022/11/20 10:02:25;;;;;;;;;;;205.60;2252.80;;;;;;5034378;28;19928;-79
2022/11/20 10:05:12;;;;;;;;;;;205.70;2252.80;;;;;;5034320;28;19905;-78
2022/11/20 10:07:47;;;;;;;;;;;205.60;2252.80;;;;;;5034004;28;19905;-84
2022/11/20 10:10:35;;;;;;;;;;;205.70;2252.80;;;;;;5033846;28;20359;-78
2022/11/20 10:13:16;;;;;;;;;;;205.70;2252.80;;;;;;4974541;28;19945;-79
2022/11/20 10:16:08;;;;;;;;;;;205.70;2252.80;;;;;;4954076;28;19914;-80
2022/11/20 10:18:45;;;;;;;;;;;205.60;2252.80;;;;;;4956387;28;19918;-82
2022/11/20 10:21:29;;;;;;;;;;;205.60;2252.80;;;;;;4958039;28;19993;-82
2022/11/20 10:24:12;;;;;;;;;;;205.50;2252.80;;;;;;4969969;28;20257;-81
2022/11/20 10:26:58;;;;;;;;;;;205.40;2252.80;;;;;;4957951;28;20400;-80
2022/11/20 10:29:29;;;;;;;;;;;205.40;2252.80;;;;;;4936005;29;19907;-82
2022/11/20 10:31:56;;;;;;;;;;;205.50;2252.80;;;;;;4936672;29;19915;-81
2022/11/20 10:34:46;;;;;;;;;;;205.70;2252.80;;;;;;4920445;29;19912;-81
2022/11/20 10:37:21;;;;;;;;;;;205.50;2252.80;;;;;;4918928;29;19926;-80
2022/11/20 10:40:04;;;;;;;;;;;205.50;2252.80;;;;;;4935147;29;19914;-80
2022/11/20 10:42:34;;;;;;;;;;;205.50;2252.80;;;;;;4919607;29;19907;-78
2022/11/20 10:45:21;;;;;;;;;;;205.60;2252.80;;;;;;4934299;29;19986;-82
2022/11/20 10:47:47;;;;;;;;;;;205.60;2252.80;;;;;;4935534;29;19907;-79
2022/11/20 10:50:15;;;;;;;;;;;205.60;2252.80;;;;;;4940439;28;20006;-90
2022/11/20 10:53:00;;;;;;;;;;;205.50;2252.80;;;;;;4957408;28;19957;-82
2022/11/20 10:55:30;;;;;;;;;;;205.60;2252.80;;;;;;4957531;28;19914;-78
2022/11/20 10:58:08;;;;;;;;;;;205.60;2252.80;;;;;;4957312;28;19914;-79
2022/11/20 11:00:34;;;;;;;;;;;205.50;2252.80;;;;;;4972887;28;19918;-78
2022/11/20 11:03:03;;;;;;;;;;;205.60;2252.80;;;;;;4972983;28;19952;-78
2022/11/20 11:05:40;;;;;;;;;;;205.60;2252.80;;;;;;4979195;28;19913;-80
2022/11/20 11:08:12;;;;;;;;;;;205.70;2252.80;;;;;;5053397;28;19904;-80
2022/11/20 11:10:47;;;;;;;;;;;205.70;2252.80;;;;;;5050743;28;19905;-78
2022/11/20 11:13:23;;;;;;;;;;;230.50;2252.80;;;;;;5033234;28;19905;-86
2022/11/20 11:15:49;;;;;;;;;;;205.70;2252.80;;;;;;5033649;28;19927;-77
2022/11/20 11:18:27;;;;;;;;;;;230.40;2252.80;;;;;;5035573;28;20351;-78
2022/11/20 11:20:53;;;;;;;;;;;230.50;2252.80;;;;;;5051747;28;19909;-77
2022/11/20 11:23:28;;;;;;;;;;;205.70;2252.80;;;;;;5049107;28;19937;-77
2022/11/20 11:25:58;;;;;;;;;;;230.40;2252.80;;;;;;5047785;28;19912;-78
2022/11/20 11:28:25;;;;;;;;;;;205.70;2252.80;;;;;;5033950;28;19995;-84
2022/11/20 11:30:51;;;;;;;;;;;205.60;2252.80;;;;;;5047735;28;19912;-78
2022/11/20 11:33:24;;;;;;;;;;;205.70;2252.80;;;;;;5047237;28;20355;-78
2022/11/20 11:35:56;;;;;;;;;;;205.60;2252.80;;;;;;5019498;28;19952;-78
2022/11/20 11:38:28;;;;;;;;;;;205.60;2252.80;;;;;;5016556;28;19988;-78
2022/11/20 11:40:56;;;;;;;;;;;205.60;2252.80;;;;;;5012430;28;19905;-78
2022/11/20 11:46:19;;;;;;;;;;;205.60;2252.80;;;;;;5038124;28;19911;-90
2022/11/20 11:49:03;;;;;;;;;;;205.50;2252.80;;;;;;5032121;28;19905;-92
2022/11/20 11:51:39;;;;;;;;;;;205.50;2252.80;;;;;;5033065;28;20340;-83
2022/11/20 11:54:13;;;;;;;;;;;205.50;2252.80;;;;;;5031545;28;20385;-78
2022/11/20 11:56:39;;;;;;;;;;;205.40;2252.80;;;;;;5031654;28;19908;-75
2022/11/20 11:59:08;;;;;;;;;;;205.40;2252.80;;;;;;5045523;28;20012;-77
2022/11/20 12:01:34;;;;;;;;;;;205.30;2252.80;;;;;;5032398;28;20434;-79
2022/11/20 12:04:25;;;;;;;;;;;205.30;2252.80;;;;;;5032137;28;20338;-82
2022/11/20 12:06:57;;;;;;;;;;;205.20;2252.80;;;;;;5009442;28;19909;-76
2022/11/20 12:09:24;;;;;;;;;;;205.20;2252.80;;;;;;5039026;28;19996;-80
2022/11/20 12:11:53;;;;;;;;;;;205.20;2252.80;;;;;;5053035;28;19912;-81
2022/11/20 12:14:30;;;;;;;;;;;205.30;2252.80;;;;;;5051812;28;20305;-86
2022/11/20 12:16:57;;;;;;;;;;;205.20;2252.80;;;;;;5053904;28;19912;-83
2022/11/20 12:19:23;;;;;;;;;;;205.20;2252.80;;;;;;5052762;28;19909;-82
2022/11/20 12:22:08;;;;;;;;;;;205.00;2252.80;;;;;;5053107;28;19966;-83
2022/11/20 12:24:33;;;;;;;;;;;205.30;2252.80;;;;;;5052915;28;19911;-82
2022/11/20 12:27:25;;;;;;;;;;;205.30;2252.80;;;;;;5053335;28;19987;-83
2022/11/20 12:29:53;;;;;;;;;;;205.30;2252.80;;;;;;5052859;28;19905;-84
2022/11/20 12:32:28;;;;;;;;;;;205.30;2252.80;;;;;;5053427;28;19913;-83
2022/11/20 12:35:04;;;;;;;;;;;205.40;2252.80;;;;;;5052977;28;19905;-85
2022/11/20 12:37:57;;;;;;;;;;;205.40;2252.80;;;;;;5040302;28;20008;-83
2022/11/20 12:40:28;;;;;;;;;;;205.30;2252.80;;;;;;5022178;28;19919;-80
2022/11/20 12:46:18;;;;;;;;;;;205.40;2252.80;;;;;;5044749;28;20424;-87
2022/11/20 12:48:50;;;;;;;;;;;205.30;2252.80;;;;;;5050931;28;19905;-81
2022/11/20 12:51:36;;;;;;;;;;;205.40;2252.80;;;;;;5052011;28;20004;-80
2022/11/20 12:54:10;;;;;;;;;;;205.50;2252.80;;;;;;4964693;28;20001;-80
2022/11/20 12:56:46;;;;;;;;;;;205.50;2252.80;;;;;;4991878;28;19922;-81
2022/11/20 12:59:17;;;;;;;;;;;205.60;2252.80;;;;;;4969493;28;19914;-80
2022/11/20 13:01:50;;;;;;;;;;;205.50;2252.80;;;;;;4952899;28;20022;-80
2022/11/20 13:04:21;;;;;;;;;;;205.70;2252.80;;;;;;4965833;28;19913;-82
2022/11/20 13:06:46;;;;;;;;;;;205.60;2252.80;;;;;;4991774;28;19905;-82
2022/11/20 13:09:13;;;;;;;;;;;205.50;2252.80;;;;;;4970659;28;20360;-81
2022/11/20 13:11:44;;;;;;;;;;;205.60;2252.80;;;;;;4982897;28;20024;-81
2022/11/20 13:14:16;;;;;;;;;;;205.60;2252.80;;;;;;4977466;28;19938;-80
2022/11/20 13:16:46;;;;;;;;;;;205.70;2252.80;;;;;;4975968;28;19910;-80
2022/11/20 13:19:13;;;;;;;;;;;205.60;2252.80;;;;;;4973444;28;20012;-82
2022/11/20 13:21:40;;;;;;;;;;;205.70;2252.80;;;;;;4959987;28;20340;-80
2022/11/20 13:24:06;;;;;;;;;;;205.60;2252.80;;;;;;4961088;28;20356;-81
2022/11/20 13:26:33;;;;;;;;;;;205.60;2252.80;;;;;;4971299;28;20423;-80
2022/11/20 13:29:04;;;;;;;;;;;205.70;2252.80;;;;;;4973140;28;19935;-81
2022/11/20 13:31:35;;;;;;;;;;;205.60;2252.80;;;;;;5022658;28;19948;-81
2022/11/20 13:34:02;;;;;;;;;;;205.60;2252.80;;;;;;5039767;28;19935;-78
2022/11/20 13:36:30;;;;;;;;;;;205.60;2252.80;;;;;;5042038;28;20343;-79
2022/11/20 13:38:56;;;;;;;;;;;205.70;2252.80;;;;;;5040523;28;19921;-80
2022/11/20 13:41:31;;;;;;;;;;;205.70;2252.80;;;;;;5045349;28;19905;-83
2022/11/20 13:44:05;;;;;;;;;;;205.70;2252.80;;;;;;5042697;28;19909;-80
2022/11/20 13:46:37;;;;;;;;;;;205.70;2252.80;;;;;;5051483;28;19940;-83
2022/11/20 13:49:07;;;;;;;;;;;205.70;2252.80;;;;;;5050102;28;19920;-82
2022/11/20 13:51:54;;;;;;;;;;;205.70;2252.80;;;;;;5035657;28;19955;-84
2022/11/20 13:54:26;;;;;;;;;;;205.70;2252.80;;;;;;5051904;28;19908;-85
2022/11/20 13:56:58;;;;;;;;;;;205.70;2252.80;;;;;;5054897;28;19913;-82
2022/11/20 13:59:36;;;;;;;;;;;205.70;2252.80;;;;;;5035985;28;19956;-82
2022/11/20 14:02:02;;;;;;;;;;;205.70;2252.80;;;;;;5069988;28;19924;-84